createdAt,value
2022-11-07T00:00:25.797Z,84.98
2022-11-07T00:03:28.586Z,84.75
2022-11-07T00:06:32.626Z,85.01
2022-11-07T00:09:35.530Z,85.38
2022-11-07T00:12:38.180Z,86.15
2022-11-07T00:15:40.805Z,86.10
2022-11-07T00:18:43.439Z,86.43
2022-11-07T00:21:47.653Z,86.64
2022-11-07T00:24:50.283Z,87.30
2022-11-07T00:27:52.888Z,86.91
2022-11-07T00:30:55.525Z,87.14
2022-11-07T00:33:59.824Z,87.16
2022-11-07T00:37:03.921Z,87.57
2022-11-07T00:40:08.092Z,87.08
2022-11-07T00:43:10.794Z,87.56
2022-11-07T00:46:15.636Z,86.88
2022-11-07T00:49:18.312Z,87.47
2022-11-07T00:52:22.294Z,87.54
2022-11-07T00:55:25.004Z,86.96
2022-11-07T00:58:27.717Z,87.33
2022-11-07T01:01:32.510Z,86.94
2022-11-07T01:04:52.998Z,87.10
2022-11-07T01:07:56.992Z,87.35
2022-11-07T01:11:00.513Z,87.49
2022-11-07T01:14:04.169Z,87.60
2022-11-07T01:17:06.776Z,87.45
2022-11-07T01:20:10.710Z,88.03
2022-11-07T01:23:15.202Z,87.96
2022-11-07T01:26:18.482Z,88.15
2022-11-07T01:29:21.241Z,88.13
2022-11-07T01:32:24.036Z,88.47
2022-11-07T01:35:26.683Z,88.97
2022-11-07T01:38:30.787Z,89.15
2022-11-07T01:41:36.238Z,89.02
2022-11-07T01:44:54.805Z,90.15
2022-11-07T01:48:03.538Z,89.89
2022-11-07T01:51:07.490Z,90.09
2022-11-07T01:54:13.325Z,90.41
2022-11-07T01:57:21.322Z,89.93
2022-11-07T02:00:25.168Z,89.83
2022-11-07T02:03:27.825Z,89.49
2022-11-07T02:06:39.773Z,89.82
2022-11-07T02:09:44.379Z,89.71
2022-11-07T02:12:47.116Z,89.51
2022-11-07T02:15:49.847Z,89.55
2022-11-07T02:18:52.758Z,89.01
2022-11-07T02:22:02.715Z,89.38
2022-11-07T02:25:12.438Z,89.07
2022-11-07T02:28:16.882Z,89.17
2022-11-07T02:31:19.572Z,89.24
2022-11-07T02:34:22.346Z,88.33
2022-11-07T02:37:29.160Z,88.40
2022-11-07T02:40:36.093Z,88.03
2022-11-07T02:43:44.737Z,87.25
2022-11-07T02:46:49.812Z,87.57
2022-11-07T02:49:54.679Z,86.45
2022-11-07T02:52:59.413Z,86.54
2022-11-07T02:56:06.050Z,85.55
2022-11-07T02:59:11.050Z,85.40
2022-11-07T03:02:16.975Z,85.62
2022-11-07T03:05:22.854Z,85.35
2022-11-07T03:08:27.865Z,84.64
2022-11-07T03:11:34.060Z,84.50
2022-11-07T03:14:39.291Z,84.13
2022-11-07T03:17:43.946Z,84.81
2022-11-07T03:20:49.338Z,84.80
2022-11-07T03:23:54.498Z,84.64
2022-11-07T03:27:01.790Z,84.05
2022-11-07T03:30:07.140Z,84.43
2022-11-07T03:33:12.214Z,84.02
2022-11-07T03:36:17.181Z,83.99
2022-11-07T03:39:25.596Z,84.04
2022-11-07T03:42:32.533Z,84.70
2022-11-07T03:45:37.193Z,84.23
2022-11-07T03:48:42.249Z,83.87
2022-11-07T03:51:47.623Z,84.17
2022-11-07T03:54:52.536Z,83.86
2022-11-07T03:57:59.303Z,84.10
2022-11-07T04:01:04.533Z,83.96
2022-11-07T04:04:09.594Z,84.51
2022-11-07T04:07:14.113Z,84.40
2022-11-07T04:10:19.781Z,84.39
2022-11-07T04:13:42.885Z,84.23
2022-11-07T04:17:09.944Z,84.02
2022-11-07T04:20:14.815Z,84.34
2022-11-07T04:23:19.768Z,84.85
2022-11-07T04:26:40.933Z,84.71
2022-11-07T04:29:47.554Z,85.58
2022-11-07T04:32:54.320Z,85.70
2022-11-07T04:35:59.137Z,85.90
2022-11-07T04:39:06.051Z,86.25
2022-11-07T04:42:11.086Z,87.08
2022-11-07T04:45:18.046Z,87.74
2022-11-07T04:48:23.032Z,88.45
2022-11-07T04:51:28.178Z,88.34
2022-11-07T04:54:32.886Z,88.93
2022-11-07T04:57:37.528Z,89.19
2022-11-07T05:00:43.584Z,89.61
2022-11-07T05:03:48.188Z,90.09
2022-11-07T05:06:52.879Z,89.67
2022-11-07T05:09:57.633Z,89.60
2022-11-07T05:13:02.353Z,89.95
2022-11-07T05:16:13.567Z,90.17
2022-11-07T05:19:19.605Z,90.30
2022-11-07T05:22:37.901Z,90.89
2022-11-07T05:25:43.494Z,90.92
2022-11-07T05:28:50.930Z,91.85
2022-11-07T05:31:57.083Z,91.82
2022-11-07T05:35:02.434Z,91.95
2022-11-07T05:38:08.154Z,92.28
2022-11-07T05:41:13.415Z,92.42
2022-11-07T05:44:18.281Z,93.33
2022-11-07T05:47:25.066Z,93.02
2022-11-07T05:50:32.778Z,92.85
2022-11-07T05:53:37.575Z,93.58
2022-11-07T05:56:44.686Z,94.07
2022-11-07T05:59:49.207Z,93.86
2022-11-07T06:03:00.874Z,93.30
2022-11-07T06:06:05.569Z,93.31
2022-11-07T06:09:10.315Z,93.22
2022-11-07T06:12:18.249Z,93.24
2022-11-07T06:15:23.399Z,94.26
2022-11-07T06:18:29.981Z,94.58
2022-11-07T06:21:36.184Z,95.28
2022-11-07T06:24:40.756Z,95.93
2022-11-07T06:27:45.442Z,96.53
2022-11-07T06:30:49.943Z,96.82
2022-11-07T06:33:56.362Z,96.66
2022-11-07T06:37:03.346Z,96.85
2022-11-07T06:40:09.154Z,97.47
2022-11-07T06:43:16.325Z,97.52
2022-11-07T06:46:23.543Z,97.95
2022-11-07T06:49:29.971Z,97.88
2022-11-07T06:52:35.024Z,97.93
2022-11-07T06:55:40.430Z,98.57
2022-11-07T06:58:44.997Z,98.33
2022-11-07T07:01:51.543Z,98.10
2022-11-07T07:04:58.014Z,97.81
2022-11-07T07:08:03.590Z,97.73
2022-11-07T07:11:11.090Z,97.49
2022-11-07T07:14:15.969Z,97.59
2022-11-07T07:17:22.624Z,97.03
2022-11-07T07:20:29.306Z,96.79
2022-11-07T07:23:34.969Z,95.44
2022-11-07T07:26:40.085Z,94.84
2022-11-07T07:29:45.519Z,94.47
2022-11-07T07:32:50.765Z,94.21
2022-11-07T07:35:57.035Z,93.37
2022-11-07T07:39:01.999Z,92.17
2022-11-07T07:42:06.924Z,91.36
2022-11-07T07:45:12.980Z,90.58
2022-11-07T07:48:17.530Z,90.72
2022-11-07T07:51:23.817Z,90.42
2022-11-07T07:54:31.570Z,89.61
2022-11-07T07:57:41.543Z,89.25
2022-11-07T08:00:46.266Z,88.69
2022-11-07T08:04:01.311Z,88.29
2022-11-07T08:07:08.949Z,86.74
2022-11-07T08:10:39.740Z,86.38
2022-11-07T08:13:39.366Z,85.67
2022-11-07T08:16:46.823Z,85.66
2022-11-07T08:19:51.801Z,85.48
2022-11-07T08:23:04.165Z,85.44
2022-11-07T08:26:09.346Z,85.64
2022-11-07T08:29:14.136Z,84.52
2022-11-07T08:32:18.786Z,83.80
2022-11-07T08:35:23.941Z,83.39
2022-11-07T08:38:32.204Z,83.01
2022-11-07T08:41:37.561Z,83.03
2022-11-07T08:44:45.788Z,82.98
2022-11-07T08:47:50.653Z,82.39
2022-11-07T08:50:56.562Z,81.63
2022-11-07T08:54:03.558Z,82.10
2022-11-07T08:57:08.322Z,81.94
2022-11-07T09:00:14.518Z,81.88
2022-11-07T09:06:45.474Z,81.03
2022-11-07T09:09:53.141Z,79.64
2022-11-07T09:12:58.506Z,79.38
2022-11-07T09:16:06.574Z,79.35
2022-11-07T09:19:13.819Z,79.06
2022-11-07T09:22:25.013Z,78.53
2022-11-07T09:25:34.346Z,79.01
2022-11-07T09:28:43.672Z,77.88
2022-11-07T09:31:52.752Z,77.79
2022-11-07T09:35:05.054Z,76.83
2022-11-07T09:38:10.864Z,76.63
2022-11-07T09:41:28.014Z,75.64
2022-11-07T09:44:52.892Z,75.91
2022-11-07T09:48:02.446Z,75.44
2022-11-07T09:51:08.462Z,75.13
2022-11-07T09:54:18.105Z,75.60
2022-11-07T09:57:27.903Z,75.82
2022-11-07T10:00:37.589Z,76.42
2022-11-07T10:04:10.160Z,74.34
2022-11-07T10:07:19.825Z,74.30
2022-11-07T10:10:41.046Z,74.72
2022-11-07T10:14:06.635Z,74.76
2022-11-07T10:17:21.000Z,75.08
2022-11-07T10:20:36.867Z,75.20
2022-11-07T10:23:56.385Z,73.93
2022-11-07T10:27:01.518Z,73.61
2022-11-07T10:30:21.133Z,73.04
2022-11-07T10:33:37.010Z,73.21
2022-11-07T10:36:42.981Z,73.49
2022-11-07T10:39:48.372Z,72.29
2022-11-07T10:42:57.303Z,72.66
2022-11-07T10:46:05.644Z,72.39
2022-11-07T10:49:23.048Z,72.00
2022-11-07T10:52:28.683Z,71.77
2022-11-07T10:55:51.765Z,70.14
2022-11-07T10:58:56.516Z,68.15
2022-11-07T11:02:03.940Z,68.51
2022-11-07T11:05:24.604Z,67.79
2022-11-07T11:08:32.787Z,67.57
2022-11-07T11:11:37.887Z,67.37
2022-11-07T11:14:44.171Z,66.53
2022-11-07T11:18:01.006Z,67.02
2022-11-07T11:21:07.368Z,66.10
2022-11-07T11:24:34.102Z,65.79
2022-11-07T11:27:41.617Z,64.31
2022-11-07T11:30:50.019Z,65.04
2022-11-07T11:34:01.165Z,65.27
2022-11-07T11:37:11.084Z,64.69
2022-11-07T11:40:21.026Z,65.34
2022-11-07T11:43:29.356Z,65.88
2022-11-07T11:46:41.264Z,65.80
2022-11-07T11:49:53.379Z,66.64
2022-11-07T11:52:59.845Z,66.61
2022-11-07T11:56:21.298Z,67.36
2022-11-07T11:59:49.130Z,66.74
2022-11-07T12:03:38.257Z,66.13
2022-11-07T12:06:49.126Z,66.50
2022-11-07T12:09:59.212Z,66.35
2022-11-07T12:13:13.765Z,63.68
2022-11-07T12:16:28.928Z,63.69
2022-11-07T12:19:43.681Z,63.33
2022-11-07T12:23:03.060Z,62.06
2022-11-07T12:26:16.420Z,60.69
2022-11-07T12:29:30.429Z,58.08
2022-11-07T12:32:45.561Z,55.75
2022-11-07T12:35:55.652Z,55.45
2022-11-07T12:39:28.082Z,50.82
2022-11-07T12:42:53.748Z,49.63
2022-11-07T12:46:12.509Z,51.03
2022-11-07T12:49:51.656Z,54.35
2022-11-07T12:53:19.104Z,56.53
2022-11-07T12:56:33.541Z,57.28
2022-11-07T12:59:42.612Z,52.80
2022-11-07T13:03:01.014Z,51.39
2022-11-07T13:06:26.533Z,52.05
2022-11-07T13:09:36.166Z,54.58
2022-11-07T13:12:50.000Z,56.27
2022-11-07T13:16:15.110Z,56.93
2022-11-07T13:19:32.884Z,57.03
2022-11-07T13:22:41.522Z,58.35
2022-11-07T13:25:48.351Z,59.80
2022-11-07T13:29:02.363Z,61.51
2022-11-07T13:32:10.049Z,61.18
2022-11-07T13:35:46.904Z,62.94
2022-11-07T13:39:11.205Z,64.36
2022-11-07T13:45:54.010Z,66.19
2022-11-07T13:49:15.502Z,67.27
2022-11-07T13:52:26.518Z,66.12
2022-11-07T13:55:51.319Z,66.02
2022-11-07T13:59:09.175Z,66.97
2022-11-07T14:02:28.585Z,66.24
2022-11-07T14:05:36.268Z,65.61
2022-11-07T14:08:46.434Z,64.55
2022-11-07T14:12:08.661Z,64.94
2022-11-07T14:15:20.243Z,65.39
2022-11-07T14:18:39.530Z,66.16
2022-11-07T14:21:48.460Z,65.98
2022-11-07T14:25:00.919Z,65.51
2022-11-07T14:28:09.562Z,65.00
2022-11-07T14:31:20.324Z,64.58
2022-11-07T14:34:28.868Z,64.43
2022-11-07T14:37:37.025Z,64.85
2022-11-07T14:40:43.930Z,65.80
2022-11-07T14:43:50.382Z,65.58
2022-11-07T14:46:56.526Z,65.35
2022-11-07T14:50:03.863Z,65.31
2022-11-07T14:53:12.737Z,64.62
2022-11-07T14:56:21.782Z,65.08
2022-11-07T14:59:33.624Z,64.37
2022-11-07T15:02:38.685Z,64.92
2022-11-07T15:05:47.925Z,65.57
2022-11-07T15:09:01.066Z,65.95
2022-11-07T15:12:17.361Z,65.50
2022-11-07T15:15:24.150Z,65.78
2022-11-07T15:18:29.997Z,64.72
2022-11-07T15:21:38.317Z,65.06
2022-11-07T15:24:45.293Z,66.14
2022-11-07T15:27:50.476Z,66.93
2022-11-07T15:30:57.421Z,66.72
2022-11-07T15:34:06.742Z,66.43
2022-11-07T15:37:14.369Z,67.29
2022-11-07T15:40:21.895Z,67.46
2022-11-07T15:43:27.581Z,68.04
2022-11-07T15:46:37.043Z,69.02
2022-11-07T15:49:41.775Z,69.96
2022-11-07T15:52:49.221Z,70.41
2022-11-07T15:55:54.581Z,72.22
2022-11-07T15:59:00.278Z,72.81
2022-11-07T16:02:05.589Z,73.37
2022-11-07T16:05:10.670Z,74.19
2022-11-07T16:08:20.283Z,75.36
2022-11-07T16:11:25.434Z,76.77
2022-11-07T16:14:43.367Z,78.07
2022-11-07T16:17:49.465Z,78.89
2022-11-07T16:20:55.505Z,79.37
2022-11-07T16:24:02.906Z,79.64
2022-11-07T16:27:07.916Z,80.12
2022-11-07T16:30:17.383Z,80.54
2022-11-07T16:33:22.551Z,80.22
2022-11-07T16:36:31.003Z,80.89
2022-11-07T16:39:37.256Z,80.97
2022-11-07T16:42:42.213Z,81.15
2022-11-07T16:45:48.925Z,81.31
2022-11-07T16:48:56.011Z,81.89
2022-11-07T16:52:01.090Z,82.59
2022-11-07T16:55:08.381Z,82.48
2022-11-07T16:58:25.613Z,83.78
2022-11-07T17:01:31.689Z,84.30
2022-11-07T17:04:36.516Z,84.40
2022-11-07T17:07:41.246Z,83.99
2022-11-07T17:10:47.517Z,84.43
2022-11-07T17:13:52.610Z,84.14
2022-11-07T17:17:00.661Z,84.36
2022-11-07T17:20:05.646Z,84.35
2022-11-07T17:23:10.367Z,84.51
2022-11-07T17:26:20.138Z,84.38
2022-11-07T17:29:24.989Z,85.01
2022-11-07T17:32:29.746Z,84.61
2022-11-07T17:35:35.094Z,84.51
2022-11-07T17:38:40.031Z,84.32
2022-11-07T17:41:47.341Z,84.46
2022-11-07T17:44:51.965Z,85.21
2022-11-07T17:47:57.643Z,85.74
2022-11-07T17:51:02.179Z,85.74
2022-11-07T17:54:08.124Z,86.03
2022-11-07T17:57:16.013Z,85.91
2022-11-07T18:00:24.212Z,86.40
2022-11-07T18:03:29.403Z,87.19
2022-11-07T18:06:36.735Z,87.50
2022-11-07T18:09:42.671Z,88.12
2022-11-07T18:12:50.083Z,87.89
2022-11-07T18:15:55.002Z,88.17
2022-11-07T18:19:01.654Z,87.60
2022-11-07T18:22:06.953Z,88.08
2022-11-07T18:25:11.953Z,87.65
2022-11-07T18:28:18.437Z,87.11
2022-11-07T18:31:24.950Z,87.35
2022-11-07T18:34:30.351Z,87.00
2022-11-07T18:37:35.197Z,86.67
2022-11-07T18:40:40.248Z,87.10
2022-11-07T18:43:46.580Z,86.83
2022-11-07T18:46:51.429Z,86.35
2022-11-07T18:49:57.605Z,85.87
2022-11-07T18:53:02.422Z,85.94
2022-11-07T18:56:09.482Z,85.46
2022-11-07T18:59:15.882Z,86.31
2022-11-07T19:02:20.644Z,86.66
2022-11-07T19:05:25.805Z,86.65
2022-11-07T19:08:31.709Z,86.98
2022-11-07T19:11:36.685Z,87.81
2022-11-07T19:14:43.559Z,88.08
2022-11-07T19:17:48.665Z,88.40
2022-11-07T19:20:55.908Z,88.87
2022-11-07T19:24:02.561Z,88.78
2022-11-07T19:27:07.305Z,89.49
2022-11-07T19:30:15.147Z,89.26
2022-11-07T19:33:20.696Z,89.95
2022-11-07T19:36:25.329Z,90.11
2022-11-07T19:39:31.016Z,90.57
2022-11-07T19:42:36.020Z,90.75
2022-11-07T19:45:43.960Z,91.20
2022-11-07T19:48:49.307Z,90.57
2022-11-07T19:51:54.714Z,91.41
2022-11-07T19:54:59.567Z,90.68
2022-11-07T19:58:04.325Z,89.80
2022-11-07T20:01:15.369Z,88.77
2022-11-07T20:04:21.421Z,88.19
2022-11-07T20:07:26.284Z,88.88
2022-11-07T20:10:31.628Z,89.07
2022-11-07T20:13:36.469Z,89.26
2022-11-07T20:16:42.977Z,89.54
2022-11-07T20:19:47.980Z,88.17
2022-11-07T20:22:52.826Z,87.95
2022-11-07T20:25:57.782Z,87.56
2022-11-07T20:29:03.912Z,87.83
2022-11-07T20:32:11.586Z,87.66
2022-11-07T20:35:16.010Z,86.98
2022-11-07T20:38:20.720Z,87.33
2022-11-07T20:41:27.564Z,87.50
2022-11-07T20:44:32.204Z,88.57
2022-11-07T20:47:39.569Z,88.04
2022-11-07T20:50:44.951Z,88.21
2022-11-07T20:53:50.786Z,88.57
2022-11-07T20:56:56.603Z,88.67
2022-11-07T21:00:01.773Z,88.59
2022-11-07T21:03:13.469Z,87.86
2022-11-07T21:06:18.714Z,87.42
2022-11-07T21:09:24.194Z,87.98
2022-11-07T21:12:29.836Z,87.43
2022-11-07T21:15:34.848Z,87.83
2022-11-07T21:18:43.553Z,87.69
2022-11-07T21:21:49.733Z,87.64
2022-11-07T21:24:54.611Z,88.06
2022-11-07T21:27:59.943Z,88.34
2022-11-07T21:31:07.268Z,87.15
2022-11-07T21:34:13.427Z,86.93
2022-11-07T21:37:18.547Z,87.03
2022-11-07T21:40:23.362Z,87.04
2022-11-07T21:43:29.516Z,87.65
2022-11-07T21:46:35.071Z,87.60
2022-11-07T21:49:41.837Z,87.45
2022-11-07T21:52:49.364Z,87.69
2022-11-07T21:55:54.239Z,87.67
2022-11-07T21:59:01.219Z,87.82
2022-11-07T22:02:05.999Z,88.41
2022-11-07T22:05:15.500Z,88.05
2022-11-07T22:08:24.038Z,88.38
2022-11-07T22:11:29.086Z,88.93
2022-11-07T22:14:33.798Z,89.93
2022-11-07T22:17:38.749Z,90.08
2022-11-07T22:20:45.318Z,90.99
2022-11-07T22:23:51.277Z,90.31
2022-11-07T22:26:57.643Z,90.65
2022-11-07T22:30:03.865Z,90.67
2022-11-07T22:33:08.970Z,89.67
2022-11-07T22:36:15.773Z,88.83
2022-11-07T22:39:20.533Z,89.18
2022-11-07T22:42:25.455Z,88.17
2022-11-07T22:45:30.303Z,87.72
2022-11-07T22:48:35.500Z,88.14
2022-11-07T22:51:42.478Z,88.32
2022-11-07T22:54:47.281Z,89.03
2022-11-07T22:57:53.941Z,89.06
2022-11-07T23:00:59.045Z,89.46
2022-11-07T23:04:04.340Z,89.30
2022-11-07T23:07:10.918Z,89.24
2022-11-07T23:10:16.413Z,89.64
2022-11-07T23:13:21.298Z,89.84
2022-11-07T23:16:32.350Z,89.88
2022-11-07T23:19:37.572Z,89.30
2022-11-07T23:22:43.579Z,90.17
2022-11-07T23:25:48.042Z,90.50
2022-11-07T23:28:53.770Z,90.50
2022-11-07T23:31:59.267Z,89.63
2022-11-07T23:35:04.536Z,89.53
2022-11-07T23:38:10.704Z,89.43
2022-11-07T23:41:16.772Z,90.27
2022-11-07T23:44:21.522Z,90.27
2022-11-07T23:47:46.244Z,91.40
2022-11-07T23:51:05.171Z,91.33
2022-11-07T23:54:28.069Z,91.18
2022-11-07T23:57:55.805Z,91.00
